Aviation Digital Data Service (ADDS)

Output produced by METARs form (2209 UTC 21 May 2022)
found at http://www.aviationweather.gov/metar/data/
 
YPAD 212200Z 26002KT 9999 VCFG NSC 07/06 Q1027
TAF YPAD 212010Z 2121/2300 14008KT 9999 FEW035 
     FM220200 23008KT 9999 FEW050 
     FM220700 09010KT 9999 FEW040 
     FM221500 05010KT CAVOK
       
YBAS 212200Z AUTO 29005KT 9999 // NCD 04/M00 Q1021 RF00.0/000.0
TAF YBAS 211704Z 2118/2218 VRB03KT CAVOK 
     FM220000 11008KT CAVOK
       
YAMB 212200Z AUTO 18004KT 9999 // SCT019 BKN025 OVC032 17/16 Q1021
TAF AMD YAMB 211703Z 2117/2218 17007KT 9999 -SHRA FEW015 BKN025 
     FM220100 15010KT 9999 -SHRA SCT030 
     FM221000 19004KT 9999 NSW SCT025 
     TEMPO 2117/2122 3000 DZ SCT005 BKN008 INTER 2122/2209 3000 SHRA BKN010
       
YMAV 212200Z AUTO 00000KT 0400 FG OVC006 05/05 Q1031 RF00.0/000.0
TAF YMAV 211659Z 2118/2218 30005KT 0300 FG BKN002 
     BECMG 2123/2200 30005KT CAVOK 
     FM220200 14005KT CAVOK 
     FM221000 29005KT 9999 FEW010
       
YBBN 212200Z 15007KT 4000 -SHRA -DZ BKN008 BKN037 18/17 Q1020
TAF YBBN 212009Z 2121/2300 19007KT 9999 -SHRA FEW005 BKN018 
     FM212300 19010KT 9999 -SHRA SCT015 BKN025 
     FM220100 14012KT 9999 -SHRA FEW015 SCT025 
     FM220800 21007KT 9999 -SHRA FEW012 SCT025 
     TEMPO 2121/2200 3000 DZ SCT005 BKN008 INTER 2200/2212 3000 SHRA BKN012
       
YBRM 212200Z AUTO 00000KT 9999 // NCD 20/19 Q1012 RF00.0/000.0
TAF YBRM 211707Z 2118/2218 VRB03KT CAVOK 
     FM220000 08005KT CAVOK 
     FM220600 30008KT CAVOK 
     FM221200 VRB03KT CAVOK
       
YBCS 212200Z AUTO 16015KT 9999 // SCT034 OVC099 24/19 Q1013
TAF YBCS 212016Z 2121/2218 17010KT 9999 -SHRA BKN030 
     FM220000 14012KT 9999 NSW SCT030 
     FM220800 17008KT 9999 SCT025
       
YSCB 212200Z AUTO 16008KT 9999 // OVC040 08/05 Q1031
TAF YSCB 212019Z 2121/2218 VRB03KT 9999 BKN030 
     FM220100 12008KT 9999 SCT040 
     FM220600 09008KT 9999 SCT030 
     FM221000 VRB03KT CAVOK
       
YBCV 212200Z AUTO 11007KT 4900 HZ SCT006 BKN012 OVC018 15/13 Q1021
YBCG 212204Z AUTO 19007KT 6000 RA SCT013 BKN021 BKN043 17/16 Q1021
TAF AMD YBCG 212012Z 2120/2218 18010KT 9999 -SHRA FEW010 BKN020 
     FM220200 15013KT 9999 -SHRA FEW015 SCT025 
     FM220900 20006KT 9999 -SHRA FEW010 SCT025 
     TEMPO 2120/2123 14015G25KT 3000 SHRA BKN008 INTER 2123/2218 3000 SHRA
BKN012
       
YCOM 212200Z AUTO 00000KT 0200 // OVC001 M01/M01 Q1031
YCBB 212200Z AUTO 21005KT 0250 -RA OVC066 10/10 Q1026
YCIN 212200Z AUTO 11004KT 9999 // NCD 18/13 Q1011 RF00.0/000.0
TAF YCIN 211858Z 2120/2208 16006KT CAVOK 
     FM212200 12007KT CAVOK 
     FM220000 07008KT CAVOK 
     FM220400 01009KT CAVOK
       
YPDN 212200Z 15005KT 9999 FEW020 BKN099 25/22 Q1012
TAF YPDN 212004Z 2121/2300 VRB03KT 9999 FEW020 
     FM220000 13012KT CAVOK 
     FM220800 32008KT CAVOK 
     FM221200 VRB03KT 9999 FEW020
       
YSDU 212200Z AUTO 14009KT 9999 // NCD 13/10 Q1027 RF00.0/000.0
TAF YSDU 211724Z 2118/2212 12008KT 9999 SCT020 
     FM220200 10012KT 9999 BKN040
       
YEML 211823Z AUTO 17009KT 9999 // SCT010 SCT062 OVC074 17/16 Q1018
YESP 212200Z AUTO 04010KT 9999 // BKN004 14/14 Q1014
YFRT 212200Z AUTO 08009KT 9999 // BKN075 OVC095 15/07 Q1018
TAF YFRT 211832Z 2120/2208 04014KT 9999 -SHRA NSC
       
YGEL 212200Z AUTO 03011KT 9999 // BKN082 13/11 Q1007 RF00.0/000.0
TAF YGEL 211716Z 2118/2212 01010KT CAVOK 
     FM220000 34010KT CAVOK 
     FM220300 32018G28KT 9999 -SHRA SCT020 
     FM220500 32020G30KT 9999 -SHRA SCT010 
     FM220800 30014KT 9999 NSW SCT040 INTER 2203/2208 VRB25G35KT 4000 SHRA
SCT010 BKN025TCU
       
YGLA 212200Z AUTO 16007KT 9999 // SCT120 21/16 Q1017 RF00.0/018.6
TAF YGLA 211706Z 2118/2206 16008KT 9999 -SHRA SCT015 BKN025 
     FM212300 15013KT 9999 NSW SCT025
       
YPGV 212200Z AUTO 11006KT 9999 // SCT024 27/22 Q1012 RF00.0/000.0
TAF YPGV 211806Z 2120/2208 15007KT 9999 FEW020 
     FM212300 13014KT 9999 SCT030
       
YGFN 211755Z AUTO 20007KT 9999 // SCT032 BKN042 OVC057 15/14 Q1023
YBHM 212200Z AUTO 16021KT 9999 // OVC013 21/19 Q1015 RF00.0/000.0
TAF AMD YBHM 211704Z 2117/2206 16025G35KT 9999 -SHRA FEW012 BKN016 
     FM220300 15025KT 9999 NSW BKN020 
     TEMPO 2117/2200 9999 BKN012
       
YMHB 212200Z 32014KT 9999 FEW020 BKN040 07/04 Q1033 RF00.0/000.0
TAF YMHB 212016Z 2121/2218 32008KT 9999 BKN035
       
YHID 212200Z AUTO 15008KT 9999 // SCT023 27/23 Q1010 RF00.0/000.0
TAF YHID 211707Z 2118/2218 15008KT 9999 -SHRA FEW020 
     FM220100 11014KT 9999 NSW SCT020 
     FM220900 13008KT 9999 SCT020
       
YPKG 212200Z AUTO 04005KT 9999 // BKN024 BKN031 OVC056 14/12 Q1014
TAF AMD YPKG 212050Z 2120/2218 02010KT 9999 -SHRA BKN018 
     FM220400 36014KT 9999 -SHRA BKN025 
     FM221200 36010KT CAVOK INTER 2205/2209 VRB15G25KT 4000 SHRA SCT015
BKN025TCU 
     PROB30 
     TEMPO 2205/2209 VRB20G30KT 3000 TSRA BKN010 BKN025CB
       
YKRY 212200Z AUTO 15006KT 4000 -SHRA OVC005 15/15 Q1021
YPKU 212200Z AUTO 00000KT 9999 // NCD 17/11 Q1014 RF00.0/000.0
TAF YPKU 211856Z 2120/2208 14005KT CAVOK 
     FM220000 12010KT CAVOK
       
YMLT 212200Z AUTO 17008KT 9999 // OVC025 06/05 Q1033 RF00.0/000.0
TAF YMLT 211717Z 2118/2218 18005KT 9999 BKN025 
     FM220100 16006KT CAVOK
       
YPLM 212200Z AUTO 00000KT 9999 // BKN053 21/19 Q1011 RF00.0/000.0
TAF YPLM 211707Z 2118/2218 VRB03KT 9999 SCT030 
     FM220000 07008KT 9999 -SHRA SCT025 
     FM220500 30012KT 9999 -SHRA BKN020 
     FM221000 24006KT 9999 NSW SCT030 INTER 2202/2210 3000 SHRA BKN015
       
YMEK 212200Z AUTO 02009KT 9999 // OVC004 18/17 Q1012
YMEN 212200Z AUTO 28004KT 8000 // OVC006 09/09 Q1031
YMML 212200Z 28005KT 7000 OVC004 08/08 Q1031 MIST
TAF AMD YMML 212136Z 2121/2300 30005KT 5000 BR BKN005 
     FM220000 16005KT 9999 NSW SCT005 
     FM220300 16008KT CAVOK 
     FM221200 34005KT CAVOK 
     BECMG 2214/2216 34005KT 9999 BKN008 
     FM222100 36005KT 9999 SCT010 
     PROB30 2122/2200 0500 FG BKN001
       
YBMA 212200Z AUTO 17004KT 9999 // NCD 18/13 Q1017 RF00.0/000.0
TAF YBMA 211705Z 2118/2206 17008KT 9999 FEW015 
     FM212300 11010KT CAVOK 
     FM220400 14008KT CAVOK
       
YSNW 211831Z AUTO 20011KT 9999 -SHRA SCT019 SCT029 BKN042 12/12 Q1029
YPEA 212200Z AUTO 36004KT 9999 // NCD 13/08 Q1007
TAF YPEA 211716Z 2118/2212 03008KT CAVOK 
     FM220600 32020G30KT 9999 -SHRA SCT012 BKN030 
     FM220800 32014KT 9999 -SHRA SCT012 BKN030 
     TEMPO 2206/2208 33025G35KT 3000 SHRA BKN010 BKN020TCU INTER 2208/2212
33015G25KT 4000 SHRA SCT015 BKN020TCU 
     PROB40 
     TEMPO 2206/2208 VRB25G45KT 2000 TSRA BKN008 BKN020CB
       
YPPH 212200Z 07006KT CAVOK 12/09 Q1007
TAF YPPH 212007Z 2121/2300 03010KT CAVOK 
     FM220600 32020G30KT 9999 -SHRA SCT012 BKN030 
     FM220800 32014KT 9999 -SHRA SCT012 BKN030 
     FM221200 36010KT 9999 -SHRA FEW015 SCT030 
     TEMPO 2206/2208 33025G35KT 3000 SHRA BKN010 BKN020TCU INTER 2208/2300
33015G25KT 4000 SHRA SCT015 BKN020TCU 
     PROB40 
     TEMPO 2206/2208 VRB25G45KT 2000 TSRA BKN008 BKN020CB 
     PROB30 
     TEMPO 2220/2300 VRB25G45KT 1000 TSRA BKN008 BKN020CB
       
YPJT 212200Z AUTO 02004KT 9999 // NCD 10/09 Q1006 RF00.0/000.0
TAF YPJT 211717Z 2118/2212 03008KT CAVOK 
     FM220600 32020G30KT 9999 -SHRA SCT012 BKN030 
     FM220800 32014KT 9999 -SHRA SCT012 BKN030 
     TEMPO 2206/2208 33025G35KT 3000 SHRA BKN010 BKN020TCU INTER 2208/2212
33015G25KT 4000 SHRA SCT015 BKN020TCU 
     PROB40 
     TEMPO 2206/2208 VRB25G45KT 2000 TSRA BKN008 BKN020CB
       
YPPD 212200Z AUTO 25001KT 9999 // OVC125 23/23 Q1011 RF00.0/000.0
TAF YPPD 211708Z 2118/2218 20005KT 9999 SCT010 
     FM220000 08005KT CAVOK 
     FM220300 31010KT CAVOK 
     FM221200 VRB03KT 9999 SCT010
       
YPMQ 212203Z AUTO 26003KT 5000 // SCT019 SCT036 SCT050 15/15 Q1025
YSRI 212200Z AUTO 06002KT 9999 // SCT021 SCT030 BKN036 13/13 Q1028
TAF YSRI 211725Z 2118/2218 25005KT 9999 -SHRA SCT010 BKN030 
     FM220300 17008KT 9999 -SHRA FEW020 BKN035 
     FM221000 22005KT 9999 -SHRA SCT010 BKN025 INTER 2118/2212 3000 SHRA SCT010
BKN020
       
YBRK 212200Z AUTO 20004KT 9999 // OVC027 19/15 Q1017 RF00.0/015.2
TAF YBRK 211704Z 2118/2218 15006KT 9999 SCT010 SCT025 
     FM220000 15012KT 9999 SCT030 
     FM221000 15008KT 9999 SCT015 
     TEMPO 2118/2122 9999 BKN010
       
YSSY 212130Z 31004KT 250V360 9999 -SHRA FEW030 BKN035 BKN220 14/13 Q1028
TAF YSSY 212028Z 2121/2300 29005KT 9999 -SHRA FEW015 BKN035 
     FM212200 18010KT 9999 -SHRA FEW020 BKN035 
     FM220000 15012KT 9999 -SHRA FEW020 SCT035 
     FM221200 28006KT 9999 -SHRA FEW010 BKN030 INTER 2121/2218 VRB15KT 4000 SHRA
SCT012 
     TEMPO 2218/2300 3000 SHRA BKN010
       
YSTW 212200Z AUTO 14005KT 9999 // BKN090 13/11 Q1025 RF00.0/000.0
TAF YSTW 211724Z 2118/2212 16008KT CAVOK 
     FM220300 12008KT 9999 SCT040
       
YTRE 212200Z AUTO 36004KT 4300 // BKN018 OVC025 14/14 Q1026
YPTN 212200Z AUTO 13005KT 9999 // NCD 20/12 Q1014 RF00.0/000.0
TAF YPTN 211704Z 2118/2218 12010KT CAVOK
       
YBTL 212200Z AUTO 21010KT 9999 // SCT035 21/16 Q1015
TAF YBTL 211706Z 2118/2218 20010KT 9999 SCT045 
     FM220000 16010KT 9999 BKN035 
     FM221000 19008KT 9999 BKN030
       
YWGT 212030Z AUTO 20003KT 4300 // NCD 01/01 Q1030
YWLM 212200Z AUTO 28005KT 9999 // BKN029 BKN047 14/14 Q1027
TAF AMD YWLM 211729Z 2118/2218 30005KT 9999 -SHRA SCT010 BKN035 
     FM220200 12010KT 9999 -SHRA SCT015 BKN035 
     FM221200 30005KT 9999 -SHRA SCT010 BKN030 INTER 2118/2212 3000 SHRA BKN010 
     TEMPO 2212/2218 3000 SHRA BKN010
       
YPWR 212200Z AUTO 11009KT 9999 // NCD 10/08 Q1024 RF00.0/000.0
TAF AMD YPWR 211723Z 2116/2212 09010KT CAVOK